sensor_id;sensor_type;location;lat;lon;timestamp;temperature;humidity
1135;DHT22;556;53.550;10.048;2022-09-09T00:00:15;19.40;56.50
1135;DHT22;556;53.550;10.048;2022-09-09T00:02:49;19.40;56.40
1135;DHT22;556;53.550;10.048;2022-09-09T00:05:26;19.50;56.50
1135;DHT22;556;53.550;10.048;2022-09-09T00:07:59;19.50;57.00
1135;DHT22;556;53.550;10.048;2022-09-09T00:10:32;19.50;57.00
1135;DHT22;556;53.550;10.048;2022-09-09T00:13:07;19.50;57.00
1135;DHT22;556;53.550;10.048;2022-09-09T00:15:46;19.50;56.70
1135;DHT22;556;53.550;10.048;2022-09-09T00:18:25;19.40;57.10
1135;DHT22;556;53.550;10.048;2022-09-09T00:20:58;19.30;57.30
1135;DHT22;556;53.550;10.048;2022-09-09T00:23:30;19.30;57.40
1135;DHT22;556;53.550;10.048;2022-09-09T00:26:04;19.40;57.30
1135;DHT22;556;53.550;10.048;2022-09-09T00:28:38;19.40;56.90
1135;DHT22;556;53.550;10.048;2022-09-09T00:31:12;19.30;56.90
1135;DHT22;556;53.550;10.048;2022-09-09T00:33:42;19.40;57.00
1135;DHT22;556;53.550;10.048;2022-09-09T00:36:13;19.40;57.50
1135;DHT22;556;53.550;10.048;2022-09-09T00:38:45;19.40;57.50
1135;DHT22;556;53.550;10.048;2022-09-09T00:41:20;19.40;56.90
1135;DHT22;556;53.550;10.048;2022-09-09T00:43:56;19.40;57.40
1135;DHT22;556;53.550;10.048;2022-09-09T00:46:49;19.40;57.00
1135;DHT22;556;53.550;10.048;2022-09-09T00:49:28;19.40;57.10
1135;DHT22;556;53.550;10.048;2022-09-09T00:52:08;19.40;57.50
1135;DHT22;556;53.550;10.048;2022-09-09T00:54:45;19.40;57.10
1135;DHT22;556;53.550;10.048;2022-09-09T00:57:25;19.40;57.00
1135;DHT22;556;53.550;10.048;2022-09-09T01:00:15;19.40;57.00
1135;DHT22;556;53.550;10.048;2022-09-09T01:02:53;19.30;57.00
1135;DHT22;556;53.550;10.048;2022-09-09T01:05:31;19.40;57.50
1135;DHT22;556;53.550;10.048;2022-09-09T01:08:03;19.40;57.60
1135;DHT22;556;53.550;10.048;2022-09-09T01:10:41;19.40;57.10
1135;DHT22;556;53.550;10.048;2022-09-09T01:13:17;19.40;57.50
1135;DHT22;556;53.550;10.048;2022-09-09T01:15:47;19.40;57.10
1135;DHT22;556;53.550;10.048;2022-09-09T01:18:17;19.40;57.60
1135;DHT22;556;53.550;10.048;2022-09-09T01:20:55;19.30;57.50
1135;DHT22;556;53.550;10.048;2022-09-09T01:23:43;19.30;57.20
1135;DHT22;556;53.550;10.048;2022-09-09T01:26:30;19.30;58.20
1135;DHT22;556;53.550;10.048;2022-09-09T01:29:07;19.30;57.70
1135;DHT22;556;53.550;10.048;2022-09-09T01:31:39;19.20;57.50
1135;DHT22;556;53.550;10.048;2022-09-09T01:34:11;19.20;57.60
1135;DHT22;556;53.550;10.048;2022-09-09T01:36:42;19.10;57.10
1135;DHT22;556;53.550;10.048;2022-09-09T01:39:12;19.20;57.20
1135;DHT22;556;53.550;10.048;2022-09-09T01:41:41;19.20;57.10
1135;DHT22;556;53.550;10.048;2022-09-09T01:44:12;19.20;57.20
1135;DHT22;556;53.550;10.048;2022-09-09T01:46:43;19.20;57.50
1135;DHT22;556;53.550;10.048;2022-09-09T01:49:17;19.20;57.10
1135;DHT22;556;53.550;10.048;2022-09-09T01:51:47;19.20;57.60
1135;DHT22;556;53.550;10.048;2022-09-09T01:54:19;19.20;57.70
1135;DHT22;556;53.550;10.048;2022-09-09T01:56:56;19.10;57.10
1135;DHT22;556;53.550;10.048;2022-09-09T01:59:45;19.10;57.20
1135;DHT22;556;53.550;10.048;2022-09-09T02:02:18;19.00;57.60
1135;DHT22;556;53.550;10.048;2022-09-09T02:05:02;19.00;57.50
1135;DHT22;556;53.550;10.048;2022-09-09T02:07:39;18.90;57.20
1135;DHT22;556;53.550;10.048;2022-09-09T02:10:19;18.80;57.20
1135;DHT22;556;53.550;10.048;2022-09-09T02:13:02;18.80;57.70
1135;DHT22;556;53.550;10.048;2022-09-09T02:15:35;18.80;57.70
1135;DHT22;556;53.550;10.048;2022-09-09T02:18:05;18.90;57.80
1135;DHT22;556;53.550;10.048;2022-09-09T02:20:35;18.80;57.20
1135;DHT22;556;53.550;10.048;2022-09-09T02:23:05;18.90;57.30
1135;DHT22;556;53.550;10.048;2022-09-09T02:25:35;18.90;57.70
1135;DHT22;556;53.550;10.048;2022-09-09T02:28:17;18.90;57.60
1135;DHT22;556;53.550;10.048;2022-09-09T02:30:46;18.80;57.10
1135;DHT22;556;53.550;10.048;2022-09-09T02:33:19;18.80;57.60
1135;DHT22;556;53.550;10.048;2022-09-09T02:35:51;18.80;57.30
1135;DHT22;556;53.550;10.048;2022-09-09T02:38:22;18.70;57.70
1135;DHT22;556;53.550;10.048;2022-09-09T02:41:02;18.70;57.70
1135;DHT22;556;53.550;10.048;2022-09-09T02:43:33;18.60;57.80
1135;DHT22;556;53.550;10.048;2022-09-09T02:46:08;18.50;57.40
1135;DHT22;556;53.550;10.048;2022-09-09T02:48:45;18.60;57.40
1135;DHT22;556;53.550;10.048;2022-09-09T02:51:19;18.60;57.90
1135;DHT22;556;53.550;10.048;2022-09-09T02:53:55;18.70;57.90
1135;DHT22;556;53.550;10.048;2022-09-09T02:56:27;18.70;57.30
1135;DHT22;556;53.550;10.048;2022-09-09T02:59:03;18.70;57.70
1135;DHT22;556;53.550;10.048;2022-09-09T03:01:31;18.70;57.80
1135;DHT22;556;53.550;10.048;2022-09-09T03:03:59;18.70;57.70
1135;DHT22;556;53.550;10.048;2022-09-09T03:06:26;18.80;57.80
1135;DHT22;556;53.550;10.048;2022-09-09T03:09:02;18.80;57.70
1135;DHT22;556;53.550;10.048;2022-09-09T03:11:29;18.80;57.70
1135;DHT22;556;53.550;10.048;2022-09-09T03:13:57;18.80;57.70
1135;DHT22;556;53.550;10.048;2022-09-09T03:16:27;18.80;57.70
1135;DHT22;556;53.550;10.048;2022-09-09T03:18:54;18.80;57.70
1135;DHT22;556;53.550;10.048;2022-09-09T03:21:22;18.80;57.30
1135;DHT22;556;53.550;10.048;2022-09-09T03:23:49;18.80;57.30
1135;DHT22;556;53.550;10.048;2022-09-09T03:26:17;18.80;57.30
1135;DHT22;556;53.550;10.048;2022-09-09T03:28:46;18.70;57.30
1135;DHT22;556;53.550;10.048;2022-09-09T03:31:17;18.70;57.30
1135;DHT22;556;53.550;10.048;2022-09-09T03:33:46;18.60;57.70
1135;DHT22;556;53.550;10.048;2022-09-09T03:36:15;18.60;57.40
1135;DHT22;556;53.550;10.048;2022-09-09T03:38:43;18.40;57.20
1135;DHT22;556;53.550;10.048;2022-09-09T03:41:11;18.60;57.80
1135;DHT22;556;53.550;10.048;2022-09-09T03:43:39;18.60;57.80
1135;DHT22;556;53.550;10.048;2022-09-09T03:46:07;18.50;57.40
1135;DHT22;556;53.550;10.048;2022-09-09T03:48:34;18.50;57.90
1135;DHT22;556;53.550;10.048;2022-09-09T03:51:04;18.40;57.80
1135;DHT22;556;53.550;10.048;2022-09-09T03:53:33;18.40;57.40
1135;DHT22;556;53.550;10.048;2022-09-09T03:58:30;18.40;57.40
1135;DHT22;556;53.550;10.048;2022-09-09T04:01:06;18.40;57.50
1135;DHT22;556;53.550;10.048;2022-09-09T04:03:35;18.40;57.90
1135;DHT22;556;53.550;10.048;2022-09-09T04:06:07;18.40;57.40
1135;DHT22;556;53.550;10.048;2022-09-09T04:08:36;18.50;57.40
1135;DHT22;556;53.550;10.048;2022-09-09T04:11:05;18.50;57.40
1135;DHT22;556;53.550;10.048;2022-09-09T04:13:34;18.50;57.40
1135;DHT22;556;53.550;10.048;2022-09-09T04:16:04;18.50;57.80
1135;DHT22;556;53.550;10.048;2022-09-09T04:18:33;18.50;57.30
1135;DHT22;556;53.550;10.048;2022-09-09T04:21:01;18.50;57.80
1135;DHT22;556;53.550;10.048;2022-09-09T04:23:32;18.40;57.70
1135;DHT22;556;53.550;10.048;2022-09-09T04:26:00;18.40;57.80
1135;DHT22;556;53.550;10.048;2022-09-09T04:28:29;18.30;57.40
1135;DHT22;556;53.550;10.048;2022-09-09T04:31:04;18.30;57.80
1135;DHT22;556;53.550;10.048;2022-09-09T04:33:31;18.30;57.80
1135;DHT22;556;53.550;10.048;2022-09-09T04:35:59;18.30;57.40
1135;DHT22;556;53.550;10.048;2022-09-09T04:38:27;18.40;58.40
1135;DHT22;556;53.550;10.048;2022-09-09T04:40:56;18.40;57.80
1135;DHT22;556;53.550;10.048;2022-09-09T04:43:24;18.40;57.80
1135;DHT22;556;53.550;10.048;2022-09-09T04:45:54;18.50;57.40
1135;DHT22;556;53.550;10.048;2022-09-09T04:48:24;18.50;57.80
1135;DHT22;556;53.550;10.048;2022-09-09T04:50:56;18.50;57.40
1135;DHT22;556;53.550;10.048;2022-09-09T04:53:24;18.50;57.30
1135;DHT22;556;53.550;10.048;2022-09-09T04:58:22;18.60;57.30
1135;DHT22;556;53.550;10.048;2022-09-09T05:00:50;18.60;57.70
1135;DHT22;556;53.550;10.048;2022-09-09T05:03:18;18.70;57.70
1135;DHT22;556;53.550;10.048;2022-09-09T05:05:45;18.60;57.20
1135;DHT22;556;53.550;10.048;2022-09-09T05:08:13;18.50;57.20
1135;DHT22;556;53.550;10.048;2022-09-09T05:10:41;18.50;57.60
1135;DHT22;556;53.550;10.048;2022-09-09T05:13:08;18.40;57.20
1135;DHT22;556;53.550;10.048;2022-09-09T05:15:37;18.30;57.20
1135;DHT22;556;53.550;10.048;2022-09-09T05:18:05;18.30;57.30
1135;DHT22;556;53.550;10.048;2022-09-09T05:20:32;18.30;57.80
1135;DHT22;556;53.550;10.048;2022-09-09T05:23:01;18.30;57.90
1135;DHT22;556;53.550;10.048;2022-09-09T05:25:30;18.20;57.80
1135;DHT22;556;53.550;10.048;2022-09-09T05:27:58;18.20;57.40
1135;DHT22;556;53.550;10.048;2022-09-09T05:30:26;18.20;57.40
1135;DHT22;556;53.550;10.048;2022-09-09T05:32:57;18.20;57.90
1135;DHT22;556;53.550;10.048;2022-09-09T05:35:24;18.30;57.40
1135;DHT22;556;53.550;10.048;2022-09-09T05:37:51;18.30;57.40
1135;DHT22;556;53.550;10.048;2022-09-09T05:40:19;18.40;57.80
1135;DHT22;556;53.550;10.048;2022-09-09T05:42:47;18.40;57.80
1135;DHT22;556;53.550;10.048;2022-09-09T05:45:14;18.50;57.70
1135;DHT22;556;53.550;10.048;2022-09-09T05:47:42;18.60;57.20
1135;DHT22;556;53.550;10.048;2022-09-09T05:50:13;18.70;57.30
1135;DHT22;556;53.550;10.048;2022-09-09T05:52:40;18.70;57.20
1135;DHT22;556;53.550;10.048;2022-09-09T05:55:08;18.80;57.70
1135;DHT22;556;53.550;10.048;2022-09-09T05:57:36;18.90;57.30
1135;DHT22;556;53.550;10.048;2022-09-09T06:00:04;19.10;57.30
1135;DHT22;556;53.550;10.048;2022-09-09T06:02:39;19.20;57.70
1135;DHT22;556;53.550;10.048;2022-09-09T06:05:10;19.30;58.10
1135;DHT22;556;53.550;10.048;2022-09-09T06:07:39;19.40;57.10
1135;DHT22;556;53.550;10.048;2022-09-09T06:10:12;19.40;57.50
1135;DHT22;556;53.550;10.048;2022-09-09T06:12:40;19.50;57.20
1135;DHT22;556;53.550;10.048;2022-09-09T06:15:08;19.60;57.70
1135;DHT22;556;53.550;10.048;2022-09-09T06:17:36;19.70;57.60
1135;DHT22;556;53.550;10.048;2022-09-09T06:20:05;19.70;57.70
1135;DHT22;556;53.550;10.048;2022-09-09T06:22:35;19.80;57.30
1135;DHT22;556;53.550;10.048;2022-09-09T06:25:04;19.70;57.20
1135;DHT22;556;53.550;10.048;2022-09-09T06:27:31;19.70;57.60
1135;DHT22;556;53.550;10.048;2022-09-09T06:29:59;19.60;57.60
1135;DHT22;556;53.550;10.048;2022-09-09T06:32:29;19.60;57.80
1135;DHT22;556;53.550;10.048;2022-09-09T06:34:59;19.70;57.80
1135;DHT22;556;53.550;10.048;2022-09-09T06:37:27;19.70;57.70
1135;DHT22;556;53.550;10.048;2022-09-09T06:39:55;19.70;57.70
1135;DHT22;556;53.550;10.048;2022-09-09T06:42:23;19.80;57.70
1135;DHT22;556;53.550;10.048;2022-09-09T06:44:51;19.80;57.60
1135;DHT22;556;53.550;10.048;2022-09-09T06:47:26;19.80;57.60
1135;DHT22;556;53.550;10.048;2022-09-09T06:49:58;19.80;57.10
1135;DHT22;556;53.550;10.048;2022-09-09T06:52:25;19.90;57.60
1135;DHT22;556;53.550;10.048;2022-09-09T06:54:54;20.00;57.60
1135;DHT22;556;53.550;10.048;2022-09-09T06:57:25;20.10;57.50
1135;DHT22;556;53.550;10.048;2022-09-09T06:59:52;20.10;57.40
1135;DHT22;556;53.550;10.048;2022-09-09T07:04:47;20.30;57.00
1135;DHT22;556;53.550;10.048;2022-09-09T07:07:16;20.30;57.40
1135;DHT22;556;53.550;10.048;2022-09-09T07:09:44;20.50;57.30
1135;DHT22;556;53.550;10.048;2022-09-09T07:12:12;20.40;56.70
1135;DHT22;556;53.550;10.048;2022-09-09T07:14:46;20.60;56.80
1135;DHT22;556;53.550;10.048;2022-09-09T07:17:13;20.60;57.20
1135;DHT22;556;53.550;10.048;2022-09-09T07:19:40;20.60;57.20
1135;DHT22;556;53.550;10.048;2022-09-09T07:22:09;20.70;56.90
1135;DHT22;556;53.550;10.048;2022-09-09T07:24:36;20.70;57.30
1135;DHT22;556;53.550;10.048;2022-09-09T07:27:03;20.70;56.80
1135;DHT22;556;53.550;10.048;2022-09-09T07:29:31;20.70;57.20
1135;DHT22;556;53.550;10.048;2022-09-09T07:32:03;20.80;56.70
1135;DHT22;556;53.550;10.048;2022-09-09T07:34:34;20.90;57.20
1135;DHT22;556;53.550;10.048;2022-09-09T07:37:01;21.10;56.60
1135;DHT22;556;53.550;10.048;2022-09-09T07:39:29;21.20;56.50
1135;DHT22;556;53.550;10.048;2022-09-09T07:41:57;21.30;56.30
1135;DHT22;556;53.550;10.048;2022-09-09T07:44:24;21.40;56.30
1135;DHT22;556;53.550;10.048;2022-09-09T07:47:07;21.40;56.80
1135;DHT22;556;53.550;10.048;2022-09-09T07:49:39;21.60;56.80
1135;DHT22;556;53.550;10.048;2022-09-09T07:52:07;21.80;56.20
1135;DHT22;556;53.550;10.048;2022-09-09T07:54:37;22.00;56.20
1135;DHT22;556;53.550;10.048;2022-09-09T07:57:06;22.20;55.90
1135;DHT22;556;53.550;10.048;2022-09-09T07:59:35;22.30;55.80
1135;DHT22;556;53.550;10.048;2022-09-09T08:02:03;22.40;56.20
1135;DHT22;556;53.550;10.048;2022-09-09T08:04:35;22.50;56.20
1135;DHT22;556;53.550;10.048;2022-09-09T08:07:03;22.60;56.20
1135;DHT22;556;53.550;10.048;2022-09-09T08:09:34;22.70;55.70
1135;DHT22;556;53.550;10.048;2022-09-09T08:12:07;22.80;56.10
1135;DHT22;556;53.550;10.048;2022-09-09T08:14:35;23.00;55.80
1135;DHT22;556;53.550;10.048;2022-09-09T08:17:02;23.10;55.70
1135;DHT22;556;53.550;10.048;2022-09-09T08:19:32;23.20;55.70
1135;DHT22;556;53.550;10.048;2022-09-09T08:22:03;23.40;55.50
1135;DHT22;556;53.550;10.048;2022-09-09T08:24:32;23.50;55.30
1135;DHT22;556;53.550;10.048;2022-09-09T08:27:00;23.60;55.20
1135;DHT22;556;53.550;10.048;2022-09-09T08:29:28;23.60;55.20
1135;DHT22;556;53.550;10.048;2022-09-09T08:31:57;23.70;54.70
1135;DHT22;556;53.550;10.048;2022-09-09T08:34:25;23.80;55.20
1135;DHT22;556;53.550;10.048;2022-09-09T08:36:54;23.80;55.00
1135;DHT22;556;53.550;10.048;2022-09-09T08:39:29;23.80;54.50
1135;DHT22;556;53.550;10.048;2022-09-09T08:42:31;23.80;55.00
1135;DHT22;556;53.550;10.048;2022-09-09T08:45:21;23.80;54.90
1135;DHT22;556;53.550;10.048;2022-09-09T08:48:08;23.70;54.40
1135;DHT22;556;53.550;10.048;2022-09-09T08:50:38;23.60;54.80
1135;DHT22;556;53.550;10.048;2022-09-09T08:53:19;23.50;55.00
1135;DHT22;556;53.550;10.048;2022-09-09T08:55:51;23.50;54.50
1135;DHT22;556;53.550;10.048;2022-09-09T08:58:27;23.60;55.00
1135;DHT22;556;53.550;10.048;2022-09-09T09:01:12;23.70;54.80
1135;DHT22;556;53.550;10.048;2022-09-09T09:03:52;23.90;54.50
1135;DHT22;556;53.550;10.048;2022-09-09T09:06:35;24.30;53.70
1135;DHT22;556;53.550;10.048;2022-09-09T09:09:11;24.50;53.50
1135;DHT22;556;53.550;10.048;2022-09-09T09:11:47;24.50;53.90
1135;DHT22;556;53.550;10.048;2022-09-09T09:14:18;24.80;53.80
1135;DHT22;556;53.550;10.048;2022-09-09T09:16:53;25.00;53.60
1135;DHT22;556;53.550;10.048;2022-09-09T09:19:21;25.10;52.90
1135;DHT22;556;53.550;10.048;2022-09-09T09:21:56;25.20;53.30
1135;DHT22;556;53.550;10.048;2022-09-09T09:24:30;25.30;53.20
1135;DHT22;556;53.550;10.048;2022-09-09T09:27:10;25.40;53.00
1135;DHT22;556;53.550;10.048;2022-09-09T09:29:40;25.40;52.90
1135;DHT22;556;53.550;10.048;2022-09-09T09:32:12;25.30;53.10
1135;DHT22;556;53.550;10.048;2022-09-09T09:34:41;25.20;53.10
1135;DHT22;556;53.550;10.048;2022-09-09T09:37:16;25.30;53.00
1135;DHT22;556;53.550;10.048;2022-09-09T09:39:45;25.40;52.20
1135;DHT22;556;53.550;10.048;2022-09-09T09:42:17;25.40;52.60
1135;DHT22;556;53.550;10.048;2022-09-09T09:44:47;25.50;52.60
1135;DHT22;556;53.550;10.048;2022-09-09T09:47:19;25.50;52.50
1135;DHT22;556;53.550;10.048;2022-09-09T09:49:55;25.70;52.40
1135;DHT22;556;53.550;10.048;2022-09-09T09:52:26;25.90;52.10
1135;DHT22;556;53.550;10.048;2022-09-09T09:54:55;26.00;52.00
1135;DHT22;556;53.550;10.048;2022-09-09T09:57:27;26.20;51.70
1135;DHT22;556;53.550;10.048;2022-09-09T10:00:13;26.40;51.30
1135;DHT22;556;53.550;10.048;2022-09-09T10:02:48;26.40;51.20
1135;DHT22;556;53.550;10.048;2022-09-09T10:05:22;26.30;51.30
1135;DHT22;556;53.550;10.048;2022-09-09T10:08:04;26.30;51.20
1135;DHT22;556;53.550;10.048;2022-09-09T10:10:46;26.20;51.10
1135;DHT22;556;53.550;10.048;2022-09-09T10:13:20;26.00;51.30
1135;DHT22;556;53.550;10.048;2022-09-09T10:16:02;25.90;51.40
1135;DHT22;556;53.550;10.048;2022-09-09T10:18:41;25.70;51.30
1135;DHT22;556;53.550;10.048;2022-09-09T10:21:23;25.60;51.40
1135;DHT22;556;53.550;10.048;2022-09-09T10:24:04;25.70;51.30
1135;DHT22;556;53.550;10.048;2022-09-09T10:26:40;25.60;51.10
1135;DHT22;556;53.550;10.048;2022-09-09T10:29:30;25.50;51.20
1135;DHT22;556;53.550;10.048;2022-09-09T10:32:10;25.50;51.20
1135;DHT22;556;53.550;10.048;2022-09-09T10:34:53;25.60;51.10
1135;DHT22;556;53.550;10.048;2022-09-09T10:37:35;25.70;51.00
1135;DHT22;556;53.550;10.048;2022-09-09T10:40:18;25.80;50.70
1135;DHT22;556;53.550;10.048;2022-09-09T10:42:46;25.80;50.60
1135;DHT22;556;53.550;10.048;2022-09-09T10:45:18;25.80;50.50
1135;DHT22;556;53.550;10.048;2022-09-09T10:48:16;25.80;50.40
1135;DHT22;556;53.550;10.048;2022-09-09T10:50:52;25.70;50.40
1135;DHT22;556;53.550;10.048;2022-09-09T10:53:31;25.50;50.50
1135;DHT22;556;53.550;10.048;2022-09-09T10:56:05;25.30;50.70
1135;DHT22;556;53.550;10.048;2022-09-09T10:58:38;25.10;50.80
1135;DHT22;556;53.550;10.048;2022-09-09T11:01:15;24.90;50.80
1135;DHT22;556;53.550;10.048;2022-09-09T11:03:46;24.80;50.80
1135;DHT22;556;53.550;10.048;2022-09-09T11:06:19;24.70;50.80
1135;DHT22;556;53.550;10.048;2022-09-09T11:08:49;24.70;50.70
1135;DHT22;556;53.550;10.048;2022-09-09T11:11:26;24.80;50.60
1135;DHT22;556;53.550;10.048;2022-09-09T11:13:59;25.00;50.60
1135;DHT22;556;53.550;10.048;2022-09-09T11:16:34;25.10;50.40
1135;DHT22;556;53.550;10.048;2022-09-09T11:19:15;25.30;50.30
1135;DHT22;556;53.550;10.048;2022-09-09T11:21:46;25.50;50.10
1135;DHT22;556;53.550;10.048;2022-09-09T11:24:18;25.60;50.00
1135;DHT22;556;53.550;10.048;2022-09-09T11:26:52;25.70;49.90
1135;DHT22;556;53.550;10.048;2022-09-09T11:29:44;25.90;49.90
1135;DHT22;556;53.550;10.048;2022-09-09T11:32:30;26.10;49.60
1135;DHT22;556;53.550;10.048;2022-09-09T11:35:07;26.30;49.40
1135;DHT22;556;53.550;10.048;2022-09-09T11:37:55;26.50;49.40
1135;DHT22;556;53.550;10.048;2022-09-09T11:40:28;26.60;49.20
1135;DHT22;556;53.550;10.048;2022-09-09T11:43:08;26.70;49.20
1135;DHT22;556;53.550;10.048;2022-09-09T11:45:39;26.80;48.90
1135;DHT22;556;53.550;10.048;2022-09-09T11:48:23;26.70;48.90
1135;DHT22;556;53.550;10.048;2022-09-09T11:51:00;26.60;49.00
1135;DHT22;556;53.550;10.048;2022-09-09T11:53:28;26.70;48.90
1135;DHT22;556;53.550;10.048;2022-09-09T11:56:24;26.60;48.90
1135;DHT22;556;53.550;10.048;2022-09-09T11:58:57;26.70;48.80
1135;DHT22;556;53.550;10.048;2022-09-09T12:01:37;26.90;48.80
1135;DHT22;556;53.550;10.048;2022-09-09T12:04:17;27.20;48.50
1135;DHT22;556;53.550;10.048;2022-09-09T12:06:48;27.50;48.20
1135;DHT22;556;53.550;10.048;2022-09-09T12:09:21;27.70;48.00
1135;DHT22;556;53.550;10.048;2022-09-09T12:11:50;27.60;47.80
1135;DHT22;556;53.550;10.048;2022-09-09T12:14:22;27.60;47.80
1135;DHT22;556;53.550;10.048;2022-09-09T12:16:49;27.50;47.80
1135;DHT22;556;53.550;10.048;2022-09-09T12:19:21;27.30;47.90
1135;DHT22;556;53.550;10.048;2022-09-09T12:21:53;27.10;47.90
1135;DHT22;556;53.550;10.048;2022-09-09T12:24:27;27.00;47.90
1135;DHT22;556;53.550;10.048;2022-09-09T12:27:01;26.90;47.90
1135;DHT22;556;53.550;10.048;2022-09-09T12:29:38;27.00;47.90
1135;DHT22;556;53.550;10.048;2022-09-09T12:32:11;27.10;47.70
1135;DHT22;556;53.550;10.048;2022-09-09T12:34:41;27.20;47.50
1135;DHT22;556;53.550;10.048;2022-09-09T12:37:17;27.70;46.70
1135;DHT22;556;53.550;10.048;2022-09-09T12:39:49;27.80;46.60
1135;DHT22;556;53.550;10.048;2022-09-09T12:42:18;27.90;47.10
1135;DHT22;556;53.550;10.048;2022-09-09T12:44:53;28.10;46.90
1135;DHT22;556;53.550;10.048;2022-09-09T12:47:22;28.40;46.50
1135;DHT22;556;53.550;10.048;2022-09-09T12:49:54;28.50;46.30
1135;DHT22;556;53.550;10.048;2022-09-09T12:52:27;28.60;46.20
1135;DHT22;556;53.550;10.048;2022-09-09T12:54:56;28.50;46.10
1135;DHT22;556;53.550;10.048;2022-09-09T12:57:26;28.20;46.20
1135;DHT22;556;53.550;10.048;2022-09-09T13:00:06;27.90;46.40
1135;DHT22;556;53.550;10.048;2022-09-09T13:02:35;27.40;46.60
1135;DHT22;556;53.550;10.048;2022-09-09T13:05:15;27.00;46.90
1135;DHT22;556;53.550;10.048;2022-09-09T13:07:43;26.70;47.20
1135;DHT22;556;53.550;10.048;2022-09-09T13:10:12;26.30;47.50
1135;DHT22;556;53.550;10.048;2022-09-09T13:12:40;26.00;47.70
1135;DHT22;556;53.550;10.048;2022-09-09T13:15:16;25.70;47.90
1135;DHT22;556;53.550;10.048;2022-09-09T13:17:51;25.30;47.80
1135;DHT22;556;53.550;10.048;2022-09-09T13:20:22;25.10;47.90
1135;DHT22;556;53.550;10.048;2022-09-09T13:22:50;25.00;48.40
1135;DHT22;556;53.550;10.048;2022-09-09T13:25:21;24.80;48.50
1135;DHT22;556;53.550;10.048;2022-09-09T13:27:53;24.60;48.70
1135;DHT22;556;53.550;10.048;2022-09-09T13:30:23;24.40;48.90
1135;DHT22;556;53.550;10.048;2022-09-09T13:33:02;23.90;48.80
1135;DHT22;556;53.550;10.048;2022-09-09T13:35:32;23.90;49.30
1135;DHT22;556;53.550;10.048;2022-09-09T13:38:06;23.70;49.40
1135;DHT22;556;53.550;10.048;2022-09-09T13:40:34;23.50;49.60
1135;DHT22;556;53.550;10.048;2022-09-09T13:43:03;23.30;49.70
1135;DHT22;556;53.550;10.048;2022-09-09T13:45:31;23.00;49.80
1135;DHT22;556;53.550;10.048;2022-09-09T13:48:09;22.60;50.70
1135;DHT22;556;53.550;10.048;2022-09-09T13:50:38;22.20;50.60
1135;DHT22;556;53.550;10.048;2022-09-09T13:53:07;22.00;50.40
1135;DHT22;556;53.550;10.048;2022-09-09T13:55:36;21.90;50.90
1135;DHT22;556;53.550;10.048;2022-09-09T13:58:04;21.80;50.90
1135;DHT22;556;53.550;10.048;2022-09-09T14:00:36;21.70;50.70
1135;DHT22;556;53.550;10.048;2022-09-09T14:03:09;21.70;50.60
1135;DHT22;556;53.550;10.048;2022-09-09T14:05:38;21.70;51.00
1135;DHT22;556;53.550;10.048;2022-09-09T14:08:06;21.70;50.70
1135;DHT22;556;53.550;10.048;2022-09-09T14:10:34;21.80;51.20
1135;DHT22;556;53.550;10.048;2022-09-09T14:13:03;21.80;50.80
1135;DHT22;556;53.550;10.048;2022-09-09T14:15:30;21.80;50.80
1135;DHT22;556;53.550;10.048;2022-09-09T14:17:57;21.80;51.30
1135;DHT22;556;53.550;10.048;2022-09-09T14:20:25;21.80;51.40
1135;DHT22;556;53.550;10.048;2022-09-09T14:22:53;21.80;51.10
1135;DHT22;556;53.550;10.048;2022-09-09T14:25:20;21.70;51.70
1135;DHT22;556;53.550;10.048;2022-09-09T14:27:47;21.60;51.50
1135;DHT22;556;53.550;10.048;2022-09-09T14:30:17;21.50;51.50
1135;DHT22;556;53.550;10.048;2022-09-09T14:32:44;21.50;52.00
1135;DHT22;556;53.550;10.048;2022-09-09T14:35:12;21.40;51.70
1135;DHT22;556;53.550;10.048;2022-09-09T14:37:39;21.40;52.20
1135;DHT22;556;53.550;10.048;2022-09-09T14:40:08;21.40;52.10
1135;DHT22;556;53.550;10.048;2022-09-09T14:42:37;21.40;52.20
1135;DHT22;556;53.550;10.048;2022-09-09T14:45:05;21.60;51.60
1135;DHT22;556;53.550;10.048;2022-09-09T14:47:33;21.60;52.10
1135;DHT22;556;53.550;10.048;2022-09-09T14:50:00;21.60;52.00
1135;DHT22;556;53.550;10.048;2022-09-09T14:52:30;21.60;52.00
1135;DHT22;556;53.550;10.048;2022-09-09T14:54:57;21.70;51.70
1135;DHT22;556;53.550;10.048;2022-09-09T14:57:25;21.70;52.10
1135;DHT22;556;53.550;10.048;2022-09-09T14:59:52;21.80;52.20
1135;DHT22;556;53.550;10.048;2022-09-09T15:02:20;21.80;51.70
1135;DHT22;556;53.550;10.048;2022-09-09T15:04:47;21.80;52.10
1135;DHT22;556;53.550;10.048;2022-09-09T15:07:15;21.80;52.10
1135;DHT22;556;53.550;10.048;2022-09-09T15:09:45;21.90;52.20
1135;DHT22;556;53.550;10.048;2022-09-09T15:12:13;21.90;52.40
1135;DHT22;556;53.550;10.048;2022-09-09T15:14:42;21.90;52.00
1135;DHT22;556;53.550;10.048;2022-09-09T15:17:09;21.90;52.50
1135;DHT22;556;53.550;10.048;2022-09-09T15:19:37;21.90;52.50
1135;DHT22;556;53.550;10.048;2022-09-09T15:22:04;21.90;52.50
1135;DHT22;556;53.550;10.048;2022-09-09T15:24:33;22.00;52.70
1135;DHT22;556;53.550;10.048;2022-09-09T15:27:00;22.00;52.80
1135;DHT22;556;53.550;10.048;2022-09-09T15:29:28;22.00;52.80
1135;DHT22;556;53.550;10.048;2022-09-09T15:31:56;22.10;52.30
1135;DHT22;556;53.550;10.048;2022-09-09T15:34:24;22.30;52.80
1135;DHT22;556;53.550;10.048;2022-09-09T15:36:51;22.40;52.70
1135;DHT22;556;53.550;10.048;2022-09-09T15:39:18;22.60;52.60
1135;DHT22;556;53.550;10.048;2022-09-09T15:41:46;22.70;51.90
1135;DHT22;556;53.550;10.048;2022-09-09T15:44:14;22.90;52.50
1135;DHT22;556;53.550;10.048;2022-09-09T15:46:43;23.10;52.50
1135;DHT22;556;53.550;10.048;2022-09-09T15:49:13;23.20;52.40
1135;DHT22;556;53.550;10.048;2022-09-09T15:51:42;23.30;52.50
1135;DHT22;556;53.550;10.048;2022-09-09T15:54:11;23.50;52.60
1135;DHT22;556;53.550;10.048;2022-09-09T15:56:38;23.70;52.60
1135;DHT22;556;53.550;10.048;2022-09-09T15:59:06;24.00;52.70
1135;DHT22;556;53.550;10.048;2022-09-09T16:01:33;24.50;52.70
1135;DHT22;556;53.550;10.048;2022-09-09T16:04:01;25.10;52.50
1135;DHT22;556;53.550;10.048;2022-09-09T16:06:29;25.80;52.20
1135;DHT22;556;53.550;10.048;2022-09-09T16:08:58;26.40;51.90
1135;DHT22;556;53.550;10.048;2022-09-09T16:11:28;27.10;51.50
1135;DHT22;556;53.550;10.048;2022-09-09T16:13:56;27.90;51.70
1135;DHT22;556;53.550;10.048;2022-09-09T16:16:28;28.70;50.70
1135;DHT22;556;53.550;10.048;2022-09-09T16:18:57;29.40;50.00
1135;DHT22;556;53.550;10.048;2022-09-09T16:21:26;30.20;49.50
1135;DHT22;556;53.550;10.048;2022-09-09T16:23:57;30.90;48.90
1135;DHT22;556;53.550;10.048;2022-09-09T16:26:26;31.20;48.50
1135;DHT22;556;53.550;10.048;2022-09-09T16:28:54;31.30;48.30
1135;DHT22;556;53.550;10.048;2022-09-09T16:31:22;31.50;48.00
1135;DHT22;556;53.550;10.048;2022-09-09T16:33:50;31.70;47.60
1135;DHT22;556;53.550;10.048;2022-09-09T16:36:19;31.60;47.40
1135;DHT22;556;53.550;10.048;2022-09-09T16:38:47;31.80;46.40